createdAt,value
2023-03-26T00:00:56.440Z,100.00
2023-03-26T00:01:33.694Z,100.00
2023-03-26T00:02:14.617Z,100.00
2023-03-26T00:02:55.525Z,100.00
2023-03-26T00:03:35.612Z,100.00
2023-03-26T00:04:15.432Z,100.00
2023-03-26T00:04:55.515Z,100.00
2023-03-26T00:05:35.481Z,100.00
2023-03-26T00:06:19.463Z,100.00
2023-03-26T00:06:54.127Z,100.00
2023-03-26T00:07:41.440Z,100.00
2023-03-26T00:08:16.560Z,100.00
2023-03-26T00:09:05.412Z,100.00
2023-03-26T00:09:39.670Z,100.00
2023-03-26T00:10:27.428Z,100.00
2023-03-26T00:11:01.510Z,100.00
2023-03-26T00:11:42.452Z,100.00
2023-03-26T00:12:22.548Z,100.00
2023-03-26T00:13:02.394Z,99.92
2023-03-26T00:13:43.946Z,100.00
2023-03-26T00:14:25.407Z,100.00
2023-03-26T00:15:05.554Z,100.00
2023-03-26T00:15:47.426Z,100.00
2023-03-26T00:16:27.819Z,100.00
2023-03-26T00:17:08.425Z,99.76
2023-03-26T00:17:51.910Z,100.00
2023-03-26T00:18:37.414Z,100.00
2023-03-26T00:19:18.522Z,100.00
2023-03-26T00:20:00.412Z,100.00
2023-03-26T00:20:41.449Z,100.00
2023-03-26T00:21:27.389Z,100.00
2023-03-26T00:22:07.545Z,99.88
2023-03-26T00:22:48.422Z,100.00
2023-03-26T00:23:28.775Z,100.00
2023-03-26T00:24:13.391Z,100.00
2023-03-26T00:24:53.571Z,100.00
2023-03-26T00:25:34.416Z,99.93
2023-03-26T00:26:15.613Z,100.00
2023-03-26T00:26:59.397Z,100.00
2023-03-26T00:27:40.501Z,100.00
2023-03-26T00:28:23.404Z,100.00
2023-03-26T00:29:04.575Z,100.00
2023-03-26T00:29:46.396Z,100.00
2023-03-26T00:30:27.760Z,100.00
2023-03-26T00:31:11.456Z,100.00
2023-03-26T00:31:51.504Z,100.00
2023-03-26T00:32:34.407Z,100.00
2023-03-26T00:33:17.279Z,100.00
2023-03-26T00:34:02.419Z,100.00
2023-03-26T00:34:42.536Z,100.00
2023-03-26T00:35:23.411Z,100.00
2023-03-26T00:36:06.533Z,100.00
2023-03-26T00:36:48.396Z,100.00
2023-03-26T00:37:33.781Z,100.00
2023-03-26T00:38:14.420Z,100.00
2023-03-26T00:38:54.560Z,100.00
2023-03-26T00:39:36.459Z,100.00
2023-03-26T00:40:17.522Z,100.00
2023-03-26T00:40:58.368Z,100.00
2023-03-26T00:41:42.973Z,100.00
2023-03-26T00:42:24.378Z,100.00
2023-03-26T00:43:19.330Z,100.00
2023-03-26T00:44:03.398Z,100.00
2023-03-26T00:44:50.403Z,100.00
2023-03-26T00:45:44.418Z,100.00
2023-03-26T00:46:40.496Z,100.00
2023-03-26T00:47:35.372Z,100.00
2023-03-26T00:48:44.136Z,100.00
2023-03-26T00:49:39.392Z,100.00
2023-03-26T00:50:22.390Z,100.00
2023-03-26T00:51:03.509Z,100.00
2023-03-26T00:51:45.444Z,100.00
2023-03-26T00:52:28.549Z,100.00
2023-03-26T00:53:09.382Z,100.00
2023-03-26T00:53:52.529Z,100.00
2023-03-26T00:54:33.387Z,100.00
2023-03-26T00:55:15.999Z,100.00
2023-03-26T00:55:57.423Z,100.00
2023-03-26T00:56:38.656Z,100.00
2023-03-26T00:57:32.677Z,100.00
2023-03-26T00:58:16.454Z,100.00
2023-03-26T00:58:57.366Z,100.00
2023-03-26T00:59:37.477Z,100.00
2023-03-26T01:00:23.383Z,100.00
2023-03-26T01:01:13.426Z,99.57
2023-03-26T01:02:07.392Z,99.62
2023-03-26T01:03:02.454Z,99.77
2023-03-26T01:04:08.631Z,99.71
2023-03-26T01:05:13.394Z,99.96
2023-03-26T01:06:20.403Z,99.67
2023-03-26T01:07:28.377Z,99.29
2023-03-26T01:09:06.385Z,99.71
2023-03-26T01:10:02.367Z,99.19
2023-03-26T01:10:59.402Z,98.88
2023-03-26T01:11:42.367Z,98.63
2023-03-26T01:12:28.468Z,98.77
2023-03-26T01:13:09.349Z,98.38
2023-03-26T01:13:56.491Z,98.76
2023-03-26T01:14:37.368Z,98.69
2023-03-26T01:15:17.460Z,98.54
2023-03-26T01:15:59.397Z,98.93
2023-03-26T01:16:53.385Z,99.11
2023-03-26T01:17:49.386Z,98.97
2023-03-26T01:18:47.366Z,98.99
2023-03-26T01:20:03.387Z,99.75
2023-03-26T01:20:59.423Z,99.09
2023-03-26T01:21:53.422Z,99.22
2023-03-26T01:22:48.380Z,98.99
2023-03-26T01:23:55.347Z,98.75
2023-03-26T01:24:49.687Z,98.88
2023-03-26T01:25:48.322Z,98.46
2023-03-26T01:26:54.348Z,98.50
2023-03-26T01:27:58.376Z,98.26
2023-03-26T01:28:53.352Z,98.18
2023-03-26T01:30:13.342Z,97.99
2023-03-26T01:31:23.321Z,98.03
2023-03-26T01:32:50.515Z,97.84
2023-03-26T01:33:50.823Z,98.08
2023-03-26T01:34:56.358Z,98.37
2023-03-26T01:35:32.483Z,98.11
2023-03-26T01:36:53.407Z,98.19
2023-03-26T01:37:35.410Z,98.29
2023-03-26T01:38:25.384Z,98.39
2023-03-26T01:39:25.234Z,98.17
2023-03-26T01:40:30.449Z,98.24
2023-03-26T01:41:20.543Z,98.08
2023-03-26T01:42:07.351Z,98.01
2023-03-26T01:42:55.486Z,98.38
2023-03-26T01:44:23.379Z,98.26
2023-03-26T01:45:24.659Z,98.54
2023-03-26T01:46:08.355Z,98.57
2023-03-26T01:46:48.481Z,98.75
2023-03-26T01:47:29.378Z,98.75
2023-03-26T01:48:09.468Z,98.74
2023-03-26T01:48:52.327Z,98.49
2023-03-26T01:49:42.343Z,98.46
2023-03-26T01:50:36.341Z,98.70
2023-03-26T01:51:48.326Z,98.50
2023-03-26T01:52:43.304Z,98.88
2023-03-26T01:53:37.352Z,98.67
2023-03-26T01:54:34.323Z,99.08
2023-03-26T01:55:18.371Z,99.20
2023-03-26T01:56:18.457Z,98.52
2023-03-26T01:57:47.299Z,99.03
2023-03-26T01:58:42.422Z,98.81
2023-03-26T01:59:48.349Z,98.79
2023-03-26T02:01:43.408Z,98.67
2023-03-26T02:03:32.375Z,98.50
2023-03-26T02:04:53.463Z,99.19
2023-03-26T02:06:00.319Z,99.45
2023-03-26T02:07:00.346Z,99.48
2023-03-26T02:08:27.307Z,99.97
2023-03-26T02:09:25.309Z,100.00
2023-03-26T02:10:34.295Z,100.00
2023-03-26T02:11:35.403Z,100.00
2023-03-26T02:12:23.316Z,100.00
2023-03-26T02:12:57.398Z,100.00
2023-03-26T02:13:46.362Z,100.00
2023-03-26T02:14:20.404Z,100.00
2023-03-26T02:15:09.278Z,100.00
2023-03-26T02:15:43.421Z,100.00
2023-03-26T02:16:30.303Z,100.00
2023-03-26T02:17:04.365Z,100.00
2023-03-26T02:17:48.365Z,100.00
2023-03-26T02:18:36.415Z,100.00
2023-03-26T02:19:22.302Z,100.00
2023-03-26T02:20:06.195Z,100.00
2023-03-26T02:20:46.280Z,100.00
2023-03-26T02:21:29.428Z,100.00
2023-03-26T02:22:10.281Z,100.00
2023-03-26T02:22:58.310Z,100.00
2023-03-26T02:24:09.316Z,100.00
2023-03-26T02:25:03.330Z,100.00
2023-03-26T02:25:57.312Z,100.00
2023-03-26T02:26:51.306Z,100.00
2023-03-26T02:27:45.307Z,100.00
2023-03-26T02:28:26.323Z,100.00
2023-03-26T02:29:06.493Z,100.00
2023-03-26T02:29:47.292Z,100.00
2023-03-26T02:30:33.637Z,100.00
2023-03-26T02:31:16.321Z,100.00
2023-03-26T02:31:56.478Z,100.00
2023-03-26T02:32:36.351Z,100.00
2023-03-26T02:33:17.259Z,100.00
2023-03-26T02:33:57.319Z,100.00
2023-03-26T02:34:38.607Z,100.00
2023-03-26T02:35:19.372Z,100.00
2023-03-26T02:36:02.044Z,100.00
2023-03-26T02:36:42.287Z,100.00
2023-03-26T02:37:22.383Z,100.00
2023-03-26T02:38:02.276Z,100.00
2023-03-26T02:38:42.373Z,100.00
2023-03-26T02:39:22.373Z,100.00
2023-03-26T02:40:02.415Z,100.00
2023-03-26T02:40:42.272Z,100.00
2023-03-26T02:41:22.395Z,100.00
2023-03-26T02:42:02.248Z,100.00
2023-03-26T02:42:42.380Z,100.00
2023-03-26T02:43:23.290Z,100.00
2023-03-26T02:44:03.419Z,100.00
2023-03-26T02:44:46.304Z,100.00
2023-03-26T02:45:26.447Z,100.00
2023-03-26T02:46:07.313Z,100.00
2023-03-26T02:46:47.357Z,100.00
2023-03-26T02:47:27.270Z,100.00
2023-03-26T02:48:08.061Z,100.00
2023-03-26T02:48:49.285Z,100.00
2023-03-26T02:49:29.354Z,100.00
2023-03-26T02:50:11.289Z,100.00
2023-03-26T02:50:54.256Z,100.00
2023-03-26T02:51:35.250Z,100.00
2023-03-26T02:52:18.500Z,100.00
2023-03-26T02:52:58.247Z,100.00
2023-03-26T02:53:39.423Z,100.00
2023-03-26T02:54:19.292Z,100.00
2023-03-26T02:54:59.367Z,100.00
2023-03-26T02:55:39.282Z,100.00
2023-03-26T02:56:19.356Z,100.00
2023-03-26T02:56:59.322Z,100.00
2023-03-26T02:57:39.392Z,100.00
2023-03-26T02:58:24.285Z,100.00
2023-03-26T02:59:04.372Z,100.00
2023-03-26T02:59:45.256Z,100.00
2023-03-26T03:00:26.332Z,100.00
2023-03-26T03:01:09.323Z,100.00
2023-03-26T03:01:49.367Z,100.00
2023-03-26T03:02:31.359Z,100.00
2023-03-26T03:03:11.378Z,100.00
2023-03-26T03:03:54.252Z,100.00
2023-03-26T03:04:34.319Z,100.00
2023-03-26T03:05:15.243Z,100.00
2023-03-26T03:05:55.719Z,100.00
2023-03-26T03:06:37.277Z,100.00
2023-03-26T03:07:17.375Z,100.00
2023-03-26T03:07:58.266Z,100.00
2023-03-26T03:08:38.357Z,100.00
2023-03-26T03:09:19.231Z,100.00
2023-03-26T03:10:02.341Z,100.00
2023-03-26T03:10:44.264Z,100.00
2023-03-26T03:11:26.433Z,100.00
2023-03-26T03:12:07.304Z,100.00
2023-03-26T03:12:48.396Z,100.00
2023-03-26T03:13:29.281Z,100.00
2023-03-26T03:14:10.484Z,100.00
2023-03-26T03:14:51.238Z,100.00
2023-03-26T03:15:32.352Z,100.00
2023-03-26T03:16:13.263Z,100.00
2023-03-26T03:16:53.921Z,100.00
2023-03-26T03:17:34.253Z,100.00
2023-03-26T03:18:14.344Z,100.00
2023-03-26T03:19:00.255Z,100.00
2023-03-26T03:19:40.355Z,100.00
2023-03-26T03:20:21.231Z,100.00
2023-03-26T03:21:01.436Z,100.00
2023-03-26T03:21:42.223Z,100.00
2023-03-26T03:22:22.435Z,100.00
2023-03-26T03:23:03.283Z,100.00
2023-03-26T03:23:43.316Z,100.00
2023-03-26T03:24:25.234Z,100.00
2023-03-26T03:25:05.355Z,100.00
2023-03-26T03:25:47.236Z,100.00
2023-03-26T03:26:29.954Z,100.00
2023-03-26T03:27:11.228Z,100.00
2023-03-26T03:28:06.245Z,100.00
2023-03-26T03:29:01.230Z,100.00
2023-03-26T03:29:55.211Z,100.00
2023-03-26T03:30:49.249Z,100.00
2023-03-26T03:31:43.219Z,100.00
2023-03-26T03:32:37.246Z,100.00
2023-03-26T03:33:27.249Z,100.00
2023-03-26T03:34:01.351Z,100.00
2023-03-26T03:34:49.228Z,100.00
2023-03-26T03:35:23.381Z,100.00
2023-03-26T03:36:20.674Z,100.00
2023-03-26T03:36:55.340Z,100.00
2023-03-26T03:37:42.223Z,100.00
2023-03-26T03:38:17.331Z,100.00
2023-03-26T03:38:58.246Z,100.00
2023-03-26T03:39:52.208Z,100.00
2023-03-26T03:40:46.220Z,100.00
2023-03-26T03:41:40.204Z,100.00
2023-03-26T03:42:36.207Z,100.00
2023-03-26T03:43:30.204Z,100.00
2023-03-26T03:44:17.252Z,100.00
2023-03-26T03:44:51.385Z,100.00
2023-03-26T03:45:38.207Z,100.00
2023-03-26T03:46:12.365Z,100.00
2023-03-26T03:47:02.209Z,100.00
2023-03-26T03:47:36.393Z,100.00
2023-03-26T03:48:25.246Z,100.00
2023-03-26T03:48:59.277Z,100.00
2023-03-26T03:49:40.234Z,100.00
2023-03-26T03:50:20.485Z,100.00
2023-03-26T03:51:02.234Z,100.00
2023-03-26T03:51:42.466Z,100.00
2023-03-26T03:52:24.202Z,100.00
2023-03-26T03:53:05.648Z,100.00
2023-03-26T03:53:47.199Z,100.00
2023-03-26T03:54:28.283Z,100.00
2023-03-26T03:55:09.213Z,100.00
2023-03-26T03:55:53.291Z,100.00
2023-03-26T03:56:33.196Z,100.00
2023-03-26T03:57:13.990Z,100.00
2023-03-26T03:57:54.222Z,100.00
2023-03-26T03:58:34.580Z,100.00
2023-03-26T03:59:15.228Z,100.00
2023-03-26T03:59:58.431Z,100.00
2023-03-26T04:00:39.222Z,100.00
2023-03-26T04:01:22.598Z,100.00
2023-03-26T04:02:03.212Z,100.00
2023-03-26T04:02:46.160Z,100.00
2023-03-26T04:03:33.741Z,100.00
2023-03-26T04:04:14.338Z,100.00
2023-03-26T04:04:56.193Z,100.00
2023-03-26T04:05:36.447Z,100.00
2023-03-26T04:06:17.217Z,100.00
2023-03-26T04:06:58.271Z,100.00
2023-03-26T04:07:39.202Z,100.00
2023-03-26T04:08:19.313Z,100.00
2023-03-26T04:09:00.179Z,100.00
2023-03-26T04:09:40.284Z,100.00
2023-03-26T04:10:22.213Z,100.00
2023-03-26T04:11:02.346Z,100.00
2023-03-26T04:11:43.206Z,100.00
2023-03-26T04:12:23.290Z,100.00
2023-03-26T04:13:04.191Z,100.00
2023-03-26T04:13:44.440Z,100.00
2023-03-26T04:14:24.163Z,100.00
2023-03-26T04:15:05.456Z,100.00
2023-03-26T04:15:46.192Z,100.00
2023-03-26T04:16:26.287Z,100.00
2023-03-26T04:17:07.218Z,100.00
2023-03-26T04:17:47.458Z,100.00
2023-03-26T04:18:29.189Z,100.00
2023-03-26T04:19:09.297Z,100.00
2023-03-26T04:19:50.177Z,100.00
2023-03-26T04:20:30.271Z,100.00
2023-03-26T04:21:14.167Z,100.00
2023-03-26T04:21:54.487Z,100.00
2023-03-26T04:22:41.187Z,100.00
2023-03-26T04:23:23.340Z,100.00
2023-03-26T04:24:04.312Z,100.00
2023-03-26T04:24:44.286Z,100.00
2023-03-26T04:25:25.171Z,100.00
2023-03-26T04:26:10.498Z,100.00
2023-03-26T04:26:51.189Z,100.00
2023-03-26T04:27:37.312Z,100.00
2023-03-26T04:28:48.231Z,100.00
2023-03-26T04:29:30.598Z,100.00
2023-03-26T04:30:13.214Z,100.00
2023-03-26T04:30:54.529Z,100.00
2023-03-26T04:31:38.202Z,100.00
2023-03-26T04:32:40.377Z,100.00
2023-03-26T04:33:24.166Z,100.00
2023-03-26T04:34:21.191Z,100.00
2023-03-26T04:34:55.423Z,100.00
2023-03-26T04:35:42.214Z,100.00
2023-03-26T04:36:16.287Z,100.00
2023-03-26T04:37:03.171Z,100.00
2023-03-26T04:37:41.368Z,100.00
2023-03-26T04:38:29.160Z,100.00
2023-03-26T04:39:05.254Z,100.00
2023-03-26T04:39:46.205Z,100.00
2023-03-26T04:40:30.566Z,100.00
2023-03-26T04:41:14.160Z,100.00
2023-03-26T04:41:55.226Z,100.00
2023-03-26T04:42:36.154Z,100.00
2023-03-26T04:43:21.248Z,100.00
2023-03-26T04:44:03.163Z,100.00
2023-03-26T04:44:43.239Z,100.00
2023-03-26T04:45:29.188Z,100.00
2023-03-26T04:46:10.613Z,100.00
2023-03-26T04:46:51.197Z,100.00
2023-03-26T04:47:31.507Z,100.00
2023-03-26T04:48:14.157Z,100.00
2023-03-26T04:49:01.586Z,100.00
2023-03-26T04:49:41.169Z,100.00
2023-03-26T04:50:21.333Z,100.00
2023-03-26T04:51:01.191Z,100.00
2023-03-26T04:51:46.602Z,100.00
2023-03-26T04:52:27.162Z,100.00
2023-03-26T04:53:07.247Z,100.00
2023-03-26T04:53:47.139Z,100.00
2023-03-26T04:54:29.228Z,100.00
2023-03-26T04:55:10.131Z,100.00
2023-03-26T04:56:11.193Z,100.00
2023-03-26T04:57:14.201Z,100.00
2023-03-26T04:58:12.155Z,100.00
2023-03-26T04:59:06.165Z,100.00
2023-03-26T05:00:00.173Z,100.00
2023-03-26T05:00:57.231Z,100.00
2023-03-26T05:01:37.188Z,100.00
2023-03-26T05:02:18.857Z,100.00
2023-03-26T05:03:02.199Z,100.00
2023-03-26T05:03:42.251Z,100.00
2023-03-26T05:04:23.221Z,100.00
2023-03-26T05:05:04.180Z,100.00
2023-03-26T05:05:45.148Z,100.00
2023-03-26T05:06:25.892Z,100.00
2023-03-26T05:07:07.133Z,100.00
2023-03-26T05:07:47.260Z,100.00
2023-03-26T05:08:27.110Z,100.00
2023-03-26T05:09:10.592Z,100.00
2023-03-26T05:09:50.129Z,100.00
2023-03-26T05:10:30.279Z,100.00
2023-03-26T05:11:14.202Z,100.00
2023-03-26T05:11:54.251Z,100.00
2023-03-26T05:12:34.135Z,100.00
2023-03-26T05:13:14.257Z,100.00
2023-03-26T05:13:54.111Z,100.00
2023-03-26T05:14:36.090Z,100.00
2023-03-26T05:15:19.143Z,100.00
2023-03-26T05:15:59.249Z,100.00
2023-03-26T05:16:40.173Z,100.00
2023-03-26T05:17:22.283Z,100.00
2023-03-26T05:18:02.200Z,100.00
2023-03-26T05:18:42.209Z,100.00
2023-03-26T05:19:23.111Z,100.00
2023-03-26T05:20:04.413Z,100.00
2023-03-26T05:20:45.118Z,100.00
2023-03-26T05:21:25.339Z,100.00
2023-03-26T05:22:06.167Z,100.00
2023-03-26T05:22:46.227Z,100.00
2023-03-26T05:23:27.170Z,100.00
2023-03-26T05:24:07.675Z,100.00
2023-03-26T05:24:48.104Z,100.00
2023-03-26T05:25:28.240Z,100.00
2023-03-26T05:26:08.133Z,100.00
2023-03-26T05:26:48.207Z,100.00
2023-03-26T05:27:29.095Z,100.00
2023-03-26T05:28:10.622Z,100.00
2023-03-26T05:28:50.141Z,100.00
2023-03-26T05:29:33.242Z,100.00
2023-03-26T05:30:15.130Z,100.00
2023-03-26T05:30:55.402Z,100.00
2023-03-26T05:31:39.154Z,100.00
2023-03-26T05:32:20.196Z,100.00
2023-03-26T05:33:00.230Z,100.00
2023-03-26T05:33:40.263Z,100.00
2023-03-26T05:34:21.131Z,100.00
2023-03-26T05:35:01.696Z,100.00
2023-03-26T05:35:43.153Z,100.00
2023-03-26T05:36:24.276Z,100.00
2023-03-26T05:37:04.103Z,100.00
2023-03-26T05:37:45.136Z,100.00
2023-03-26T05:38:25.094Z,100.00
2023-03-26T05:39:05.205Z,100.00
2023-03-26T05:39:46.157Z,100.00
2023-03-26T05:40:27.203Z,100.00
2023-03-26T05:41:10.145Z,100.00
2023-03-26T05:41:50.230Z,100.00
2023-03-26T05:42:31.107Z,100.00
2023-03-26T05:43:11.449Z,100.00
2023-03-26T05:43:54.097Z,100.00
2023-03-26T05:44:34.307Z,100.00
2023-03-26T05:45:17.173Z,100.00
2023-03-26T05:45:59.199Z,100.00
2023-03-26T05:46:39.074Z,100.00
2023-03-26T05:47:19.236Z,100.00
2023-03-26T05:48:01.188Z,100.00
2023-03-26T05:48:41.200Z,100.00
2023-03-26T05:49:22.110Z,100.00
2023-03-26T05:50:02.193Z,100.00
2023-03-26T05:50:42.098Z,100.00
2023-03-26T05:51:23.461Z,100.00
2023-03-26T05:52:04.085Z,100.00
2023-03-26T05:52:45.534Z,100.00
2023-03-26T05:53:27.099Z,100.00
2023-03-26T05:54:07.155Z,100.00
2023-03-26T05:54:49.081Z,100.00
2023-03-26T05:55:29.236Z,100.00
2023-03-26T05:56:11.127Z,100.00
2023-03-26T05:56:51.287Z,100.00
2023-03-26T05:57:35.075Z,100.00
2023-03-26T05:58:15.441Z,100.00
2023-03-26T05:58:55.088Z,100.00
2023-03-26T05:59:35.285Z,100.00
2023-03-26T06:00:18.067Z,100.00
2023-03-26T06:01:26.239Z,100.00
2023-03-26T06:02:46.220Z,100.00
2023-03-26T06:03:23.035Z,100.00
2023-03-26T06:04:10.141Z,100.00
2023-03-26T06:04:45.772Z,100.00
2023-03-26T06:05:33.051Z,100.00
2023-03-26T06:06:07.155Z,100.00
2023-03-26T06:06:48.077Z,100.00
2023-03-26T06:07:28.182Z,100.00
2023-03-26T06:08:09.078Z,100.00
2023-03-26T06:09:01.394Z,100.00
2023-03-26T06:09:45.111Z,100.00
2023-03-26T06:10:25.400Z,100.00
2023-03-26T06:11:11.065Z,100.00
2023-03-26T06:11:58.118Z,100.00
2023-03-26T06:12:52.169Z,100.00
2023-03-26T06:13:46.068Z,100.00
2023-03-26T06:14:40.076Z,100.00
2023-03-26T06:15:34.090Z,100.00
2023-03-26T06:16:29.162Z,100.00
2023-03-26T06:17:17.092Z,100.00
2023-03-26T06:17:51.183Z,100.00
2023-03-26T06:18:38.058Z,100.00
2023-03-26T06:19:12.173Z,100.00
2023-03-26T06:19:59.074Z,100.00
2023-03-26T06:20:33.217Z,100.00
2023-03-26T06:21:20.087Z,100.00
2023-03-26T06:21:54.153Z,100.00
2023-03-26T06:22:41.090Z,100.00
2023-03-26T06:23:15.302Z,100.00
2023-03-26T06:24:03.058Z,100.00
2023-03-26T06:24:37.157Z,100.00
2023-03-26T06:25:24.035Z,100.00
2023-03-26T06:26:05.113Z,100.00
2023-03-26T06:26:45.089Z,100.00
2023-03-26T06:27:25.287Z,100.00
2023-03-26T06:28:05.079Z,100.00
2023-03-26T06:28:45.206Z,100.00
2023-03-26T06:29:26.041Z,100.00
2023-03-26T06:30:28.047Z,100.00
2023-03-26T06:31:24.074Z,100.00
2023-03-26T06:32:20.390Z,100.00
2023-03-26T06:33:15.091Z,100.00
2023-03-26T06:34:09.101Z,100.00
2023-03-26T06:35:03.062Z,100.00
2023-03-26T06:35:58.067Z,100.00
2023-03-26T06:36:52.024Z,100.00
2023-03-26T06:37:46.036Z,100.00
2023-03-26T06:38:33.063Z,100.00
2023-03-26T06:39:07.588Z,100.00
2023-03-26T06:39:55.043Z,100.00
2023-03-26T06:40:29.273Z,100.00
2023-03-26T06:41:16.042Z,100.00
2023-03-26T06:41:50.323Z,100.00
2023-03-26T06:43:08.109Z,100.00
2023-03-26T06:43:40.088Z,100.00
2023-03-26T06:44:34.053Z,100.00
2023-03-26T06:45:28.037Z,100.00
2023-03-26T06:46:23.121Z,100.00
2023-03-26T06:47:17.066Z,100.00
2023-03-26T06:48:11.029Z,100.00
2023-03-26T06:48:59.042Z,100.00
2023-03-26T06:49:34.379Z,100.00
2023-03-26T06:50:21.038Z,100.00
2023-03-26T06:50:55.368Z,100.00
2023-03-26T06:51:42.044Z,100.00
2023-03-26T06:52:16.386Z,100.00
2023-03-26T06:53:04.037Z,100.00
2023-03-26T06:53:38.143Z,100.00
2023-03-26T06:54:18.039Z,100.00
2023-03-26T06:54:58.125Z,100.00
2023-03-26T06:55:38.060Z,100.00
2023-03-26T06:56:18.108Z,100.00
2023-03-26T06:56:59.088Z,100.00
2023-03-26T06:57:39.092Z,100.00
2023-03-26T06:58:20.006Z,100.00
2023-03-26T06:59:00.208Z,100.00
2023-03-26T06:59:40.086Z,100.00
2023-03-26T07:00:21.131Z,100.00
2023-03-26T07:01:03.044Z,100.00
2023-03-26T07:01:43.902Z,100.00
2023-03-26T07:02:29.068Z,100.00
2023-03-26T07:03:12.150Z,100.00
2023-03-26T07:03:52.114Z,100.00
2023-03-26T07:04:32.099Z,100.00
2023-03-26T07:05:13.041Z,100.00
2023-03-26T07:05:54.109Z,100.00
2023-03-26T07:06:34.038Z,100.00
2023-03-26T07:07:14.348Z,100.00
2023-03-26T07:07:55.023Z,100.00
2023-03-26T07:08:35.198Z,100.00
2023-03-26T07:09:16.044Z,100.00
2023-03-26T07:09:56.096Z,100.00
2023-03-26T07:10:36.060Z,100.00
2023-03-26T07:11:16.861Z,100.00
2023-03-26T07:11:57.999Z,100.00
2023-03-26T07:12:38.196Z,100.00
2023-03-26T07:13:19.032Z,100.00
2023-03-26T07:13:59.570Z,100.00
2023-03-26T07:14:41.015Z,100.00
2023-03-26T07:15:21.121Z,100.00
2023-03-26T07:16:02.054Z,100.00
2023-03-26T07:16:42.112Z,100.00
2023-03-26T07:17:23.006Z,100.00
2023-03-26T07:18:03.134Z,100.00
2023-03-26T07:18:42.990Z,100.00
2023-03-26T07:19:24.100Z,100.00
2023-03-26T07:20:05.082Z,100.00
2023-03-26T07:20:46.368Z,100.00
2023-03-26T07:21:28.026Z,100.00
2023-03-26T07:22:09.091Z,100.00
2023-03-26T07:22:50.001Z,100.00
2023-03-26T07:23:31.161Z,100.00
2023-03-26T07:24:12.000Z,100.00
2023-03-26T07:24:53.134Z,100.00
2023-03-26T07:25:34.008Z,100.00
2023-03-26T07:27:02.044Z,100.00
2023-03-26T07:28:13.990Z,100.00
2023-03-26T07:29:45.997Z,100.00
2023-03-26T07:30:46.055Z,100.00
2023-03-26T07:32:03.083Z,100.00
2023-03-26T07:33:14.997Z,100.00
2023-03-26T07:35:00.006Z,100.00
2023-03-26T07:36:04.982Z,100.00
2023-03-26T07:37:32.010Z,100.00
2023-03-26T07:38:51.072Z,100.00
2023-03-26T07:40:12.987Z,100.00
2023-03-26T07:41:10.005Z,100.00
2023-03-26T07:42:22.995Z,100.00
2023-03-26T07:43:50.038Z,100.00
2023-03-26T07:45:22.131Z,100.00
2023-03-26T07:46:04.047Z,100.00
2023-03-26T07:46:47.762Z,100.00
2023-03-26T07:47:38.068Z,100.00
2023-03-26T07:48:25.501Z,100.00
2023-03-26T07:49:08.017Z,100.00
2023-03-26T07:49:49.125Z,100.00
2023-03-26T07:50:31.957Z,100.00
2023-03-26T07:51:13.117Z,100.00
2023-03-26T07:51:57.048Z,100.00
2023-03-26T07:52:38.059Z,100.00
2023-03-26T07:53:18.985Z,100.00
2023-03-26T07:54:00.526Z,100.00
2023-03-26T07:54:41.974Z,100.00
2023-03-26T07:55:24.569Z,100.00
2023-03-26T07:56:40.056Z,100.00
2023-03-26T07:58:01.044Z,100.00
2023-03-26T07:58:52.985Z,100.00
2023-03-26T08:00:00.039Z,100.00
2023-03-26T08:01:12.958Z,100.00
2023-03-26T08:02:14.969Z,100.00
2023-03-26T08:03:39.010Z,100.00
2023-03-26T08:04:57.078Z,100.00
2023-03-26T08:05:46.992Z,100.00
2023-03-26T08:06:42.138Z,100.00
2023-03-26T08:07:38.994Z,100.00
2023-03-26T08:08:54.094Z,100.00
2023-03-26T08:09:47.953Z,100.00
2023-03-26T08:10:50.946Z,100.00
2023-03-26T08:12:10.968Z,100.00
2023-03-26T08:13:32.974Z,100.00
2023-03-26T08:14:39.940Z,100.00
2023-03-26T08:16:36.977Z,100.00
2023-03-26T08:17:42.009Z,100.00
2023-03-26T08:18:58.964Z,100.00
2023-03-26T08:20:23.993Z,100.00
2023-03-26T08:21:39.980Z,100.00
2023-03-26T08:22:40.956Z,100.00
2023-03-26T08:24:18.951Z,100.00
2023-03-26T08:25:40.966Z,100.00
2023-03-26T08:27:07.957Z,100.00
2023-03-26T08:28:54.946Z,100.00
2023-03-26T08:30:01.934Z,100.00
2023-03-26T08:30:56.162Z,100.00
2023-03-26T08:31:52.935Z,100.00
2023-03-26T08:32:33.980Z,100.00
2023-03-26T08:33:27.785Z,100.00
2023-03-26T08:34:08.924Z,100.00
2023-03-26T08:34:50.032Z,100.00
2023-03-26T08:35:31.976Z,100.00
2023-03-26T08:36:13.020Z,100.00
2023-03-26T08:36:52.902Z,100.00
2023-03-26T08:37:33.092Z,100.00
2023-03-26T08:38:13.947Z,100.00
2023-03-26T08:38:54.021Z,100.00
2023-03-26T08:39:33.911Z,100.00
2023-03-26T08:40:15.395Z,100.00
2023-03-26T08:41:18.928Z,100.00
2023-03-26T08:42:43.001Z,100.00
2023-03-26T08:43:44.939Z,100.00
2023-03-26T08:44:52.064Z,100.00
2023-03-26T08:46:45.963Z,100.00
2023-03-26T08:47:55.623Z,100.00
2023-03-26T08:49:24.512Z,100.00
2023-03-26T08:50:15.415Z,100.00
2023-03-26T08:51:13.972Z,100.00
2023-03-26T08:52:10.241Z,100.00
2023-03-26T08:53:28.935Z,100.00
2023-03-26T08:55:01.932Z,100.00
2023-03-26T08:56:28.977Z,100.00
2023-03-26T08:57:52.919Z,100.00
2023-03-26T08:59:25.937Z,100.00
2023-03-26T09:00:44.954Z,100.00
2023-03-26T09:02:14.892Z,100.00
2023-03-26T09:03:17.902Z,100.00
2023-03-26T09:04:20.943Z,100.00
2023-03-26T09:05:34.926Z,100.00
2023-03-26T09:07:03.940Z,100.00
2023-03-26T09:08:09.019Z,100.00
2023-03-26T09:09:18.772Z,100.00
2023-03-26T09:10:26.053Z,100.00
2023-03-26T09:11:51.913Z,100.00
2023-03-26T09:13:15.922Z,100.00
2023-03-26T09:14:06.999Z,100.00
2023-03-26T09:15:32.914Z,100.00
2023-03-26T09:16:43.109Z,100.00
2023-03-26T09:18:25.918Z,100.00
2023-03-26T09:19:38.836Z,100.00
2023-03-26T09:21:09.886Z,100.00
2023-03-26T09:22:03.966Z,100.00
2023-03-26T09:23:20.926Z,100.00
2023-03-26T09:24:34.932Z,100.00
2023-03-26T09:25:41.889Z,100.00
2023-03-26T09:27:17.901Z,100.00
2023-03-26T09:28:41.912Z,100.00
2023-03-26T09:30:30.943Z,100.00
2023-03-26T09:31:56.120Z,100.00
2023-03-26T09:33:30.914Z,100.00
2023-03-26T09:34:40.912Z,100.00
2023-03-26T09:35:56.011Z,100.00
2023-03-26T09:37:11.906Z,100.00
2023-03-26T09:38:12.910Z,100.00
2023-03-26T09:39:34.929Z,100.00
2023-03-26T09:40:33.902Z,100.00
2023-03-26T09:41:43.915Z,100.00
2023-03-26T09:42:47.996Z,100.00
2023-03-26T09:44:11.930Z,100.00
2023-03-26T09:45:17.048Z,100.00
2023-03-26T09:46:13.979Z,100.00
2023-03-26T09:47:40.966Z,100.00
2023-03-26T09:49:15.929Z,100.00
2023-03-26T09:50:43.881Z,100.00
2023-03-26T09:52:05.874Z,100.00
2023-03-26T09:53:26.915Z,100.00
2023-03-26T09:54:40.850Z,100.00
2023-03-26T09:56:02.904Z,100.00
2023-03-26T09:57:26.930Z,100.00
2023-03-26T09:58:57.895Z,100.00
2023-03-26T10:00:05.884Z,100.00
2023-03-26T10:01:28.922Z,100.00
2023-03-26T10:02:45.546Z,100.00
2023-03-26T10:04:13.883Z,100.00
2023-03-26T10:05:31.860Z,100.00
2023-03-26T10:06:34.941Z,100.00
2023-03-26T10:08:35.885Z,100.00
2023-03-26T10:10:10.924Z,100.00
2023-03-26T10:11:22.883Z,100.00
2023-03-26T10:12:50.869Z,100.00
2023-03-26T10:14:26.870Z,100.00
2023-03-26T10:15:30.922Z,100.00
2023-03-26T10:16:50.938Z,99.96
2023-03-26T10:18:02.925Z,99.93
2023-03-26T10:20:03.888Z,97.68
2023-03-26T10:21:10.932Z,96.62
2023-03-26T10:22:14.045Z,96.50
2023-03-26T10:23:12.878Z,96.10
2023-03-26T10:24:18.103Z,97.87
2023-03-26T10:25:49.832Z,98.13
2023-03-26T10:27:10.368Z,96.59
2023-03-26T10:28:08.864Z,96.18
2023-03-26T10:29:43.831Z,96.43
2023-03-26T10:31:19.910Z,95.28
2023-03-26T10:32:55.885Z,95.71
2023-03-26T10:34:33.842Z,95.75